Contship Sun — D5NF3 — position and weather

sailwx.info

Track history (hours):
 
Tides and Currents Weather Stations Pressure Air Temp Water Temp Dewpoint Dewpoint Depression Visibility Wind Speed Wind Dir Waves Ship Positions

Contship Sun

Last reported at 2018-Jan-21 10:48 UTC. Time now 2018-Jan-23 13:43 UTC.
Position N 39°42' E 023°56'.

Length 139 m; draft 7.8 m.

Type: Cargo ship. MMSI: 636017894.

Date/timePositionNaut miles runAvg speedWind from/ knotsBaromVisibWave heightAir tempDewpointWater temp
2018-Jan-21 10:48N 39°42' E 023°56'414.9
2018-Jan-21 10:30N 39°41' E 024°02'815.1
2018-Jan-21 10:00N 39°38' E 024°11'10213.4
2018-Jan-21 02:22N 37°58' E 024°37'514.1
2018-Jan-21 02:00N 37°54' E 024°33'714.5
2018-Jan-21 01:30N 37°49' E 024°26'714.7
2018-Jan-21 01:00N 37°44' E 024°19'714.3
2018-Jan-21 00:30N 37°39' E 024°13'714.1
2018-Jan-20 23:59N 37°35' E 024°05'713.8
2018-Jan-20 23:29N 37°35' E 023°56'713.2
2018-Jan-20 23:00N 37°37' E 023°49'612.7
2018-Jan-20 22:30N 37°41' E 023°42'713.4
2018-Jan-20 22:00N 37°47' E 023°39'713.0
2018-Jan-20 21:30N 37°53' E 023°37'4 8.5
2018-Jan-20 21:00N 37°57' E 023°36'0 0.1
2018-Jan-20 20:30N 37°57' E 023°36'0 0.0
2018-Jan-20 19:59N 37°57' E 023°36'0 0.0
2018-Jan-20 19:26N 37°57' E 023°36'0 0.0
2018-Jan-20 18:57N 37°57' E 023°36'0 0.0
2018-Jan-20 18:30N 37°57' E 023°36'0 0.0
2018-Jan-20 17:59N 37°57' E 023°36'0 0.0
2018-Jan-20 17:29N 37°57' E 023°36'0 0.0
2018-Jan-20 16:54N 37°57' E 023°36'0 0.0
2018-Jan-20 16:30N 37°57' E 023°36'0 0.0
2018-Jan-20 16:00N 37°57' E 023°36'0 0.0
2018-Jan-20 15:30N 37°57' E 023°36'0 0.0
2018-Jan-20 14:58N 37°57' E 023°36'0 0.0
2018-Jan-20 14:30N 37°57' E 023°36'0 0.0
2018-Jan-20 14:00N 37°57' E 023°36'0 0.0
2018-Jan-20 13:29N 37°57' E 023°36'0 0.2
2018-Jan-20 13:01N 37°57' E 023°36'2 4.2
2018-Jan-20 12:30N 37°55' E 023°35'1 2.0
2018-Jan-20 12:01N 37°54' E 023°34'0 0.4
2018-Jan-20 11:30N 37°54' E 023°34'0 0.9
2018-Jan-20 11:00N 37°54' E 023°35'3 6.4
2018-Jan-20 10:30N 37°52' E 023°38'612.7
2018-Jan-20 10:00N 37°46' E 023°42'714.5
2018-Jan-20 09:30N 37°40' E 023°46'714.3
2018-Jan-20 08:59N 37°35' E 023°53'714.3
2018-Jan-20 08:30N 37°36' E 024°02'814.4
2018-Jan-20 07:59N 37°39' E 024°11'715.0
2018-Jan-20 07:30N 37°44' E 024°18'814.8
2018-Jan-20 06:59N 37°49' E 024°25'714.8
2018-Jan-20 06:30N 37°53' E 024°32'714.7
2018-Jan-20 06:00N 37°59' E 024°38'3314.0
2018-Jan-20 03:38N 38°23' E 025°07'12 0.2
2018-Jan-18 01:41N 38°14' E 024°56'315.8
2018-Jan-18 01:30N 38°12' E 024°53'1815.6
2018-Jan-18 00:21N 37°59' E 024°39'515.9
2018-Jan-18 00:01N 37°54' E 024°35'116.0
2018-Jan-17 23:58N 37°53' E 024°35'  
Track history (hours):
 
Tides and Currents Weather Stations Pressure Air Temp Water Temp Dewpoint Dewpoint Depression Visibility Wind Speed Wind Dir Waves Ship Positions

Contship Sun

Last reported at 2018-Jan-21 10:48 UTC. Time now 2018-Jan-23 13:43 UTC.
Position N 39°42' E 023°56'.

Length 139 m; draft 7.8 m.

Type: Cargo ship. MMSI: 636017894.

Date/timePositionNaut miles runAvg speedWind from/ knotsBaromVisibWave heightAir tempDewpointWater temp
2018-Jan-21 10:48N 39°42' E 023°56'414.9
2018-Jan-21 10:30N 39°41' E 024°02'815.1
2018-Jan-21 10:00N 39°38' E 024°11'10213.4
2018-Jan-21 02:22N 37°58' E 024°37'514.1
2018-Jan-21 02:00N 37°54' E 024°33'714.5
2018-Jan-21 01:30N 37°49' E 024°26'714.7
2018-Jan-21 01:00N 37°44' E 024°19'714.3
2018-Jan-21 00:30N 37°39' E 024°13'714.1
2018-Jan-20 23:59N 37°35' E 024°05'713.8
2018-Jan-20 23:29N 37°35' E 023°56'713.2
2018-Jan-20 23:00N 37°37' E 023°49'612.7
2018-Jan-20 22:30N 37°41' E 023°42'713.4
2018-Jan-20 22:00N 37°47' E 023°39'713.0
2018-Jan-20 21:30N 37°53' E 023°37'4 8.5
2018-Jan-20 21:00N 37°57' E 023°36'0 0.1
2018-Jan-20 20:30N 37°57' E 023°36'0 0.0
2018-Jan-20 19:59N 37°57' E 023°36'0 0.0
2018-Jan-20 19:26N 37°57' E 023°36'0 0.0
2018-Jan-20 18:57N 37°57' E 023°36'0 0.0
2018-Jan-20 18:30N 37°57' E 023°36'0 0.0
2018-Jan-20 17:59N 37°57' E 023°36'0 0.0
2018-Jan-20 17:29N 37°57' E 023°36'0 0.0
2018-Jan-20 16:54N 37°57' E 023°36'0 0.0
2018-Jan-20 16:30N 37°57' E 023°36'0 0.0
2018-Jan-20 16:00N 37°57' E 023°36'0 0.0
2018-Jan-20 15:30N 37°57' E 023°36'0 0.0
2018-Jan-20 14:58N 37°57' E 023°36'0 0.0
2018-Jan-20 14:30N 37°57' E 023°36'0 0.0
2018-Jan-20 14:00N 37°57' E 023°36'0 0.0
2018-Jan-20 13:29N 37°57' E 023°36'0 0.2
2018-Jan-20 13:01N 37°57' E 023°36'2 4.2
2018-Jan-20 12:30N 37°55' E 023°35'1 2.0
2018-Jan-20 12:01N 37°54' E 023°34'0 0.4
2018-Jan-20 11:30N 37°54' E 023°34'0 0.9
2018-Jan-20 11:00N 37°54' E 023°35'3 6.4
2018-Jan-20 10:30N 37°52' E 023°38'612.7
2018-Jan-20 10:00N 37°46' E 023°42'714.5
2018-Jan-20 09:30N 37°40' E 023°46'714.3
2018-Jan-20 08:59N 37°35' E 023°53'714.3
2018-Jan-20 08:30N 37°36' E 024°02'814.4
2018-Jan-20 07:59N 37°39' E 024°11'715.0
2018-Jan-20 07:30N 37°44' E 024°18'814.8
2018-Jan-20 06:59N 37°49' E 024°25'714.8
2018-Jan-20 06:30N 37°53' E 024°32'714.7
2018-Jan-20 06:00N 37°59' E 024°38'3314.0
2018-Jan-20 03:38N 38°23' E 025°07'12 0.2
2018-Jan-18 01:41N 38°14' E 024°56'315.8
2018-Jan-18 01:30N 38°12' E 024°53'1815.6
2018-Jan-18 00:21N 37°59' E 024°39'515.9
2018-Jan-18 00:01N 37°54' E 024°35'116.0
2018-Jan-17 23:58N 37°53' E 024°35'  

Dump ship's entire track history